createdAt,value
2017-02-22T00:02:13.475Z,20.2
2017-02-22T00:04:46.107Z,20.2
2017-02-22T00:07:18.759Z,20.3
2017-02-22T00:09:51.418Z,20.3
2017-02-22T00:12:24.052Z,20.2
2017-02-22T00:14:57.097Z,20.3
2017-02-22T00:17:29.707Z,20.2
2017-02-22T00:20:02.768Z,20.2
2017-02-22T00:22:36.288Z,20.2
2017-02-22T00:25:08.951Z,20.2
2017-02-22T00:27:41.664Z,20.2
2017-02-22T00:30:14.284Z,20.2
2017-02-22T00:32:48.064Z,20.2
2017-02-22T00:35:22.155Z,20.2
2017-02-22T00:37:55.175Z,20.2
2017-02-22T00:40:27.945Z,20.2
2017-02-22T00:43:00.987Z,20.2
2017-02-22T00:45:34.894Z,20.2
2017-02-22T00:48:07.951Z,20.2
2017-02-22T00:50:40.604Z,20.2
2017-02-22T00:53:13.682Z,20.2
2017-02-22T00:55:46.358Z,20.2
2017-02-22T00:58:19.046Z,20.2
2017-02-22T01:00:51.714Z,20.2
2017-02-22T01:03:24.376Z,20.2
2017-02-22T01:05:57.018Z,20.2
2017-02-22T01:08:29.696Z,20.1
2017-02-22T01:11:02.859Z,20.1
2017-02-22T01:13:35.505Z,20.1
2017-02-22T01:16:09.024Z,20.1
2017-02-22T01:18:41.660Z,20.1
2017-02-22T01:21:14.317Z,20.1
2017-02-22T01:23:46.954Z,20.1
2017-02-22T01:26:20.031Z,20.1
2017-02-22T01:28:53.084Z,20.1
2017-02-22T01:31:26.130Z,20.1
2017-02-22T01:33:58.779Z,20.1
2017-02-22T01:36:31.848Z,20.1
2017-02-22T01:39:04.974Z,20.1
2017-02-22T01:41:37.635Z,20.1
2017-02-22T01:44:10.298Z,20
2017-02-22T01:46:43.020Z,20
2017-02-22T01:49:15.665Z,20
2017-02-22T01:51:48.492Z,20
2017-02-22T01:54:21.558Z,20
2017-02-22T01:56:54.667Z,20
2017-02-22T01:59:27.328Z,20
2017-02-22T02:01:59.962Z,20
2017-02-22T02:04:33.069Z,20
2017-02-22T02:07:05.706Z,20
2017-02-22T02:09:38.373Z,20
2017-02-22T02:12:11.210Z,20
2017-02-22T02:14:44.271Z,20
2017-02-22T02:17:17.105Z,20
2017-02-22T02:19:50.237Z,20
2017-02-22T02:22:22.877Z,20
2017-02-22T02:24:55.527Z,20
2017-02-22T02:27:28.219Z,20
2017-02-22T02:30:01.287Z,20.1
2017-02-22T02:32:34.759Z,20
2017-02-22T02:35:07.820Z,20.1
2017-02-22T02:37:40.456Z,20.1
2017-02-22T02:40:13.073Z,20.1
2017-02-22T02:42:45.754Z,20.1
2017-02-22T02:45:18.403Z,20.1
2017-02-22T02:47:51.071Z,20.1
2017-02-22T02:50:23.767Z,20.1
2017-02-22T02:52:56.388Z,20.1
2017-02-22T02:55:29.461Z,20.1
2017-02-22T03:01:07.223Z,20.1
2017-02-22T03:03:40.481Z,20.1
2017-02-22T03:06:13.099Z,20.1
2017-02-22T03:08:45.717Z,20.1
2017-02-22T03:11:18.336Z,20.1
2017-02-22T03:13:51.435Z,20.1
2017-02-22T03:16:24.082Z,20
2017-02-22T03:18:56.722Z,20
2017-02-22T03:21:29.354Z,20.1
2017-02-22T03:24:02.630Z,20
2017-02-22T03:26:35.731Z,20.1
2017-02-22T03:29:08.830Z,20
2017-02-22T03:31:41.468Z,20
2017-02-22T03:34:14.136Z,20
2017-02-22T03:36:46.745Z,20
2017-02-22T03:39:19.372Z,20
2017-02-22T03:41:52.433Z,20
2017-02-22T03:44:25.072Z,20
2017-02-22T03:46:58.126Z,20.1
2017-02-22T03:49:31.191Z,20
2017-02-22T03:52:03.807Z,20
2017-02-22T03:54:36.446Z,20
2017-02-22T03:57:09.473Z,20
2017-02-22T03:59:42.144Z,20
2017-02-22T04:02:14.790Z,20
2017-02-22T04:04:47.832Z,20.1
2017-02-22T04:07:20.474Z,20
2017-02-22T04:09:53.512Z,20.1
2017-02-22T04:12:26.538Z,20
2017-02-22T04:14:59.603Z,20.1
2017-02-22T04:17:32.210Z,20.1
2017-02-22T04:20:04.860Z,20.1
2017-02-22T04:22:37.489Z,20
2017-02-22T04:25:10.572Z,20
2017-02-22T04:27:43.231Z,20.1
2017-02-22T04:30:16.279Z,20.1
2017-02-22T04:32:48.945Z,20
2017-02-22T04:35:22.039Z,20.1
2017-02-22T04:37:54.658Z,20.1
2017-02-22T04:40:27.303Z,20.1
2017-02-22T04:42:59.955Z,20.1
2017-02-22T04:45:32.552Z,20.1
2017-02-22T04:48:05.223Z,20.1
2017-02-22T04:50:37.820Z,20.1
2017-02-22T04:53:10.481Z,20.1
2017-02-22T04:55:43.081Z,20.1
2017-02-22T04:58:15.707Z,20.1
2017-02-22T05:00:48.321Z,20.1
2017-02-22T05:03:20.948Z,20.1
2017-02-22T05:05:53.559Z,20.1
2017-02-22T05:08:26.188Z,20.1
2017-02-22T05:10:58.838Z,20.1
2017-02-22T05:13:31.923Z,20.1
2017-02-22T05:16:04.775Z,20.1
2017-02-22T05:18:37.377Z,20.1
2017-02-22T05:21:11.281Z,20.1
2017-02-22T05:23:44.743Z,20.1
2017-02-22T05:26:17.366Z,20.1
2017-02-22T05:28:51.274Z,20.1
2017-02-22T05:31:23.904Z,20.1
2017-02-22T05:33:56.525Z,20.1
2017-02-22T05:36:29.191Z,20.1
2017-02-22T05:39:02.449Z,20.1
2017-02-22T05:41:35.527Z,20.1
2017-02-22T05:44:08.183Z,20.1
2017-02-22T05:46:40.839Z,20.1
2017-02-22T05:49:13.891Z,20.1
2017-02-22T05:51:46.561Z,20.1
2017-02-22T05:54:19.637Z,20.1
2017-02-22T05:56:52.696Z,20.1
2017-02-22T05:59:25.756Z,20.1
2017-02-22T06:01:58.408Z,20.1
2017-02-22T06:04:31.910Z,20.1
2017-02-22T06:07:04.568Z,20.1
2017-02-22T06:09:37.620Z,20.1
2017-02-22T06:12:10.675Z,20.1
2017-02-22T06:14:43.700Z,20.1
2017-02-22T06:17:16.333Z,20.1
2017-02-22T06:19:49.003Z,20.1
2017-02-22T06:22:22.052Z,20.1
2017-02-22T06:24:55.091Z,20.1
2017-02-22T06:27:27.717Z,20.1
2017-02-22T06:30:00.349Z,20
2017-02-22T06:32:33.396Z,20.1
2017-02-22T06:35:06.057Z,20.1
2017-02-22T06:37:39.112Z,20.1
2017-02-22T06:40:12.212Z,20.1
2017-02-22T06:42:44.886Z,20.1
2017-02-22T06:45:17.532Z,20.1
2017-02-22T06:47:50.597Z,20.1
2017-02-22T06:50:23.245Z,20.1
2017-02-22T06:52:55.904Z,20.1
2017-02-22T06:55:28.958Z,20.1
2017-02-22T06:58:02.014Z,20.1
2017-02-22T07:00:35.041Z,20.1
2017-02-22T07:03:07.650Z,20.1
2017-02-22T07:05:40.272Z,20.1
2017-02-22T07:08:12.897Z,20.1
2017-02-22T07:10:45.565Z,20.1
2017-02-22T07:13:18.236Z,20.1
2017-02-22T07:15:50.892Z,20.1
2017-02-22T07:18:23.504Z,20.1
2017-02-22T07:20:56.548Z,20.1
2017-02-22T07:23:29.362Z,20.1
2017-02-22T07:26:02.434Z,20.1
2017-02-22T07:28:35.046Z,20.1
2017-02-22T07:31:07.668Z,20.1
2017-02-22T07:33:40.342Z,20.1
2017-02-22T07:36:12.983Z,20.1
2017-02-22T07:38:45.641Z,20.1
2017-02-22T07:41:18.681Z,20.1
2017-02-22T07:43:51.757Z,20.1
2017-02-22T07:46:24.412Z,20.1
2017-02-22T07:48:57.042Z,20.1
2017-02-22T07:51:29.678Z,20.1
2017-02-22T07:54:02.706Z,20.1
2017-02-22T07:56:35.341Z,20.1
2017-02-22T07:59:08.391Z,20.1
2017-02-22T08:01:41.040Z,20.1
2017-02-22T08:04:14.116Z,20.1
2017-02-22T08:06:47.185Z,20.1
2017-02-22T08:09:19.863Z,20.1
2017-02-22T08:11:52.504Z,20.1
2017-02-22T08:14:25.136Z,20.1
2017-02-22T08:16:58.228Z,20.1
2017-02-22T08:19:31.704Z,20.1
2017-02-22T08:22:04.364Z,20.1
2017-02-22T08:24:37.454Z,20.1
2017-02-22T08:27:10.131Z,20.1
2017-02-22T08:29:42.773Z,20.1
2017-02-22T08:32:15.406Z,20.1
2017-02-22T08:34:48.054Z,20
2017-02-22T08:37:20.691Z,20
2017-02-22T08:39:53.374Z,20
2017-02-22T08:42:26.032Z,19.9
2017-02-22T08:44:58.667Z,19.9
2017-02-22T08:47:31.328Z,19.9
2017-02-22T08:50:04.843Z,19.8
2017-02-22T08:52:37.913Z,19.8
2017-02-22T08:55:10.539Z,19.8
2017-02-22T08:57:43.170Z,19.7
2017-02-22T09:00:15.805Z,19.8
2017-02-22T09:02:48.461Z,19.8
2017-02-22T09:05:21.096Z,19.8
2017-02-22T09:07:54.578Z,19.8
2017-02-22T09:10:27.415Z,19.8
2017-02-22T09:13:00.048Z,19.8
2017-02-22T09:15:32.698Z,19.8
2017-02-22T09:18:05.316Z,19.8
2017-02-22T09:20:38.381Z,19.9
2017-02-22T09:23:10.985Z,19.9
2017-02-22T09:25:43.641Z,19.9
2017-02-22T09:28:17.142Z,19.9
2017-02-22T09:30:50.179Z,19.9
2017-02-22T09:33:23.675Z,19.9
2017-02-22T09:35:56.703Z,19.9
2017-02-22T09:38:29.321Z,20
2017-02-22T09:41:02.391Z,20
2017-02-22T09:43:35.001Z,20
2017-02-22T09:46:08.056Z,20
2017-02-22T09:48:40.675Z,20
2017-02-22T09:51:13.297Z,20
2017-02-22T09:53:46.357Z,20
2017-02-22T09:56:19.023Z,20
2017-02-22T09:58:51.683Z,20
2017-02-22T10:01:24.322Z,20
2017-02-22T10:03:56.969Z,20
2017-02-22T10:06:30.493Z,20
2017-02-22T10:09:03.537Z,20
2017-02-22T10:11:37.002Z,20
2017-02-22T10:14:09.592Z,20
2017-02-22T10:16:42.249Z,20
2017-02-22T10:19:14.860Z,20
2017-02-22T10:21:47.884Z,20
2017-02-22T10:24:20.499Z,20
2017-02-22T10:26:53.532Z,20
2017-02-22T10:29:26.163Z,20
2017-02-22T10:31:58.994Z,20
2017-02-22T10:34:31.622Z,20
2017-02-22T10:37:04.244Z,20
2017-02-22T10:39:36.866Z,20
2017-02-22T10:42:09.898Z,20
2017-02-22T10:44:42.966Z,20
2017-02-22T10:47:16.033Z,20
2017-02-22T10:49:48.661Z,20
2017-02-22T10:52:21.300Z,20
2017-02-22T10:54:53.945Z,20
2017-02-22T10:57:26.602Z,20
2017-02-22T10:59:59.256Z,20.1
2017-02-22T11:02:31.931Z,20.1
2017-02-22T11:05:04.570Z,20.1
2017-02-22T11:07:37.648Z,20.1
2017-02-22T11:10:10.260Z,20.1
2017-02-22T11:12:42.877Z,20.1
2017-02-22T11:15:15.532Z,20.1
2017-02-22T11:17:48.614Z,20.1
2017-02-22T11:20:21.433Z,20.1
2017-02-22T11:22:54.056Z,20.1
2017-02-22T11:25:26.679Z,20.1
2017-02-22T11:27:59.304Z,20.1
2017-02-22T11:30:31.940Z,20.1
2017-02-22T11:33:04.568Z,20.1
2017-02-22T11:35:37.603Z,20.1
2017-02-22T11:38:10.667Z,20.1
2017-02-22T11:40:43.327Z,20.1
2017-02-22T11:43:15.958Z,20.1
2017-02-22T11:45:48.590Z,20.1
2017-02-22T11:48:21.210Z,20.1
2017-02-22T11:50:53.856Z,20.1
2017-02-22T11:53:26.918Z,20.1
2017-02-22T11:55:59.526Z,20.1
2017-02-22T11:58:33.004Z,20.1
2017-02-22T12:01:05.642Z,20
2017-02-22T12:03:38.260Z,20
2017-02-22T12:06:11.334Z,19.9
2017-02-22T12:08:43.958Z,19.9
2017-02-22T12:11:16.607Z,19.9
2017-02-22T12:13:49.253Z,19.8
2017-02-22T12:16:21.903Z,19.8
2017-02-22T12:18:54.956Z,19.8
2017-02-22T12:21:27.575Z,19.7
2017-02-22T12:24:00.170Z,19.7
2017-02-22T12:26:32.806Z,19.7
2017-02-22T12:29:05.427Z,19.7
2017-02-22T12:31:38.025Z,19.7
2017-02-22T12:34:10.656Z,19.7
2017-02-22T12:36:43.273Z,19.7
2017-02-22T12:39:15.932Z,19.6
2017-02-22T12:41:48.572Z,19.6
2017-02-22T12:44:21.608Z,19.6
2017-02-22T12:46:54.247Z,19.5
2017-02-22T12:49:26.880Z,19.5
2017-02-22T12:51:59.514Z,19.5
2017-02-22T12:54:32.155Z,19.4
2017-02-22T12:57:05.666Z,19.4
2017-02-22T12:59:38.693Z,19.4
2017-02-22T13:02:11.325Z,19.3
2017-02-22T13:04:43.985Z,19.3
2017-02-22T13:07:16.654Z,19.3
2017-02-22T13:09:49.269Z,19.2
2017-02-22T13:12:21.894Z,19.2
2017-02-22T13:14:54.546Z,19.2
2017-02-22T13:17:27.196Z,19.1
2017-02-22T13:19:59.833Z,19.1
2017-02-22T13:22:32.489Z,19.1
2017-02-22T13:25:05.133Z,19
2017-02-22T13:27:37.797Z,19
2017-02-22T13:30:10.445Z,19
2017-02-22T13:32:43.092Z,19
2017-02-22T13:35:15.731Z,19.1
2017-02-22T13:37:48.392Z,19.1
2017-02-22T13:40:21.007Z,19.1
2017-02-22T13:42:53.650Z,19.2
2017-02-22T13:45:26.748Z,19.2
2017-02-22T13:47:59.804Z,19.2
2017-02-22T13:50:32.448Z,19.3
2017-02-22T13:53:05.083Z,19.3
2017-02-22T13:55:37.719Z,19.3
2017-02-22T13:58:10.779Z,19.3
2017-02-22T14:00:43.398Z,19.4
2017-02-22T14:03:16.016Z,19.4
2017-02-22T14:05:49.052Z,19.4
2017-02-22T14:08:21.674Z,19.4
2017-02-22T14:10:54.325Z,19.4
2017-02-22T14:13:26.925Z,19.4
2017-02-22T14:15:59.549Z,19.5
2017-02-22T14:18:32.587Z,19.5
2017-02-22T14:21:05.240Z,19.5
2017-02-22T14:23:37.867Z,19.5
2017-02-22T14:26:10.497Z,19.5
2017-02-22T14:28:43.115Z,19.5
2017-02-22T14:31:15.760Z,19.5
2017-02-22T14:33:48.381Z,19.5
2017-02-22T14:36:21.440Z,19.5
2017-02-22T14:38:54.059Z,19.4
2017-02-22T14:41:27.127Z,19.4
2017-02-22T14:43:59.743Z,19.4
2017-02-22T14:46:32.855Z,19.3
2017-02-22T14:49:05.901Z,19.3
2017-02-22T14:51:38.958Z,19.3
2017-02-22T14:54:11.614Z,19.3
2017-02-22T14:56:44.210Z,19.3
2017-02-22T14:59:17.253Z,19.3
2017-02-22T15:01:49.888Z,19.3
2017-02-22T15:04:23.140Z,19.4
2017-02-22T15:06:55.762Z,19.4
2017-02-22T15:09:28.408Z,19.4
2017-02-22T15:12:01.872Z,19.4
2017-02-22T15:14:34.513Z,19.4
2017-02-22T15:17:08.007Z,19.5
2017-02-22T15:19:40.636Z,19.5
2017-02-22T15:22:13.262Z,19.5
2017-02-22T15:24:46.122Z,19.6
2017-02-22T15:27:18.747Z,19.6
2017-02-22T15:29:51.834Z,19.6
2017-02-22T15:32:24.502Z,19.6
2017-02-22T15:34:57.559Z,19.6
2017-02-22T15:37:30.618Z,19.7
2017-02-22T15:40:03.660Z,19.7
2017-02-22T15:42:37.126Z,19.7
2017-02-22T15:45:09.772Z,19.7
2017-02-22T15:47:42.418Z,19.7
2017-02-22T15:50:15.915Z,19.7
2017-02-22T15:52:48.981Z,19.7
2017-02-22T15:55:21.590Z,19.7
2017-02-22T15:57:54.225Z,19.7
2017-02-22T16:00:27.283Z,19.7
2017-02-22T16:02:59.898Z,19.7
2017-02-22T16:05:32.525Z,19.7
2017-02-22T16:08:06.212Z,19.7
2017-02-22T16:10:38.881Z,19.7
2017-02-22T16:13:11.522Z,19.7
2017-02-22T16:15:44.589Z,19.8
2017-02-22T16:18:17.651Z,19.8
2017-02-22T16:20:50.729Z,19.8
2017-02-22T16:23:23.365Z,19.8
2017-02-22T16:25:56.235Z,19.8
2017-02-22T16:28:28.872Z,19.8
2017-02-22T16:31:01.946Z,19.8
2017-02-22T16:33:35.018Z,19.8
2017-02-22T16:36:08.049Z,19.8
2017-02-22T16:38:41.101Z,19.8
2017-02-22T16:41:14.580Z,19.9
2017-02-22T16:43:47.208Z,19.9
2017-02-22T16:46:19.847Z,19.9
2017-02-22T16:48:53.331Z,19.8
2017-02-22T16:51:25.977Z,19.7
2017-02-22T16:53:58.618Z,19.7
2017-02-22T16:56:31.678Z,19.7
2017-02-22T16:59:04.347Z,19.6
2017-02-22T17:01:36.982Z,19.6
2017-02-22T17:04:09.645Z,19.6
2017-02-22T17:06:42.284Z,19.6
2017-02-22T17:09:15.384Z,19.7
2017-02-22T17:11:48.023Z,19.7
2017-02-22T17:14:20.645Z,19.7
2017-02-22T17:16:53.274Z,19.7
2017-02-22T17:19:25.903Z,19.7
2017-02-22T17:21:58.573Z,19.7
2017-02-22T17:24:31.630Z,19.7
2017-02-22T17:27:04.252Z,19.7
2017-02-22T17:29:36.878Z,19.7
2017-02-22T17:32:09.533Z,19.7
2017-02-22T17:34:42.210Z,19.7
2017-02-22T17:37:14.850Z,19.7
2017-02-22T17:39:47.491Z,19.7
2017-02-22T17:42:20.102Z,19.7
2017-02-22T17:44:52.728Z,19.7
2017-02-22T17:47:25.362Z,19.6
2017-02-22T17:49:58.905Z,19.6
2017-02-22T17:52:31.510Z,19.6
2017-02-22T17:55:04.555Z,19.6
2017-02-22T17:57:37.178Z,19.6
2017-02-22T18:00:09.931Z,19.6
2017-02-22T18:02:42.555Z,19.6
2017-02-22T18:05:15.659Z,19.6
2017-02-22T18:07:48.306Z,19.6
2017-02-22T18:10:21.427Z,19.6
2017-02-22T18:12:54.033Z,19.6
2017-02-22T18:15:27.092Z,19.6
2017-02-22T18:17:59.708Z,19.6
2017-02-22T18:20:32.324Z,19.6
2017-02-22T18:23:04.974Z,19.6
2017-02-22T18:25:37.589Z,19.6
2017-02-22T18:28:10.608Z,19.6
2017-02-22T18:30:43.673Z,19.6
2017-02-22T18:33:16.313Z,19.6
2017-02-22T18:35:48.978Z,19.6
2017-02-22T18:38:21.630Z,19.6
2017-02-22T18:40:54.243Z,19.6
2017-02-22T18:43:26.862Z,19.6
2017-02-22T18:45:59.510Z,19.6
2017-02-22T18:48:32.141Z,19.6
2017-02-22T18:51:04.764Z,19.6
2017-02-22T18:53:37.395Z,19.6
2017-02-22T18:56:10.026Z,19.6
2017-02-22T18:58:42.689Z,19.6
2017-02-22T19:01:15.720Z,19.6
2017-02-22T19:03:48.342Z,19.6
2017-02-22T19:06:21.873Z,19.6
2017-02-22T19:08:54.519Z,19.6
2017-02-22T19:11:27.120Z,19.6
2017-02-22T19:13:59.748Z,19.6
2017-02-22T19:16:32.822Z,19.7
2017-02-22T19:19:05.440Z,19.7
2017-02-22T19:21:38.499Z,19.7
2017-02-22T19:24:11.592Z,19.7
2017-02-22T19:26:44.213Z,19.7
2017-02-22T19:29:16.827Z,19.7
2017-02-22T19:31:49.453Z,19.7
2017-02-22T19:34:22.078Z,19.7
2017-02-22T19:36:55.119Z,19.7
2017-02-22T19:39:28.172Z,19.7
2017-02-22T19:42:01.263Z,19.7
2017-02-22T19:44:33.917Z,19.7
2017-02-22T19:47:06.551Z,19.7
2017-02-22T19:49:39.172Z,19.7
2017-02-22T19:52:12.199Z,19.7
2017-02-22T19:54:45.241Z,19.7
2017-02-22T19:57:18.316Z,19.7
2017-02-22T19:59:50.922Z,19.7
2017-02-22T20:02:23.582Z,19.7
2017-02-22T20:04:56.233Z,19.8
2017-02-22T20:07:28.859Z,19.8
2017-02-22T20:10:02.750Z,19.8
2017-02-22T20:12:35.362Z,19.8
2017-02-22T20:15:08.410Z,19.8
2017-02-22T20:17:41.447Z,19.8
2017-02-22T20:20:14.081Z,19.8
2017-02-22T20:22:46.722Z,19.8
2017-02-22T20:25:19.339Z,19.9
2017-02-22T20:27:51.992Z,19.9
2017-02-22T20:30:24.618Z,19.9
2017-02-22T20:32:57.672Z,19.9
2017-02-22T20:35:30.307Z,19.9
2017-02-22T20:38:02.925Z,19.9
2017-02-22T20:40:35.589Z,19.9
2017-02-22T20:43:08.190Z,19.9
2017-02-22T20:45:41.223Z,19.9
2017-02-22T20:48:13.848Z,19.9
2017-02-22T20:50:46.489Z,19.9
2017-02-22T20:53:19.113Z,19.9
2017-02-22T20:55:51.746Z,19.9
2017-02-22T20:58:24.809Z,19.9
2017-02-22T21:00:57.849Z,20
2017-02-22T21:03:30.920Z,20
2017-02-22T21:06:03.972Z,20
2017-02-22T21:08:37.439Z,20
2017-02-22T21:11:10.076Z,20
2017-02-22T21:13:43.123Z,20
2017-02-22T21:16:16.159Z,20
2017-02-22T21:18:49.212Z,20
2017-02-22T21:21:22.238Z,20
2017-02-22T21:23:55.707Z,20
2017-02-22T21:26:28.359Z,20
2017-02-22T21:29:01.404Z,20
2017-02-22T21:31:34.020Z,20
2017-02-22T21:34:06.668Z,20
2017-02-22T21:36:39.700Z,20
2017-02-22T21:39:12.351Z,20
2017-02-22T21:41:45.413Z,20
2017-02-22T21:44:19.011Z,20
2017-02-22T21:46:51.639Z,20
2017-02-22T21:49:24.259Z,20
2017-02-22T21:51:56.906Z,20
2017-02-22T21:54:29.563Z,20
2017-02-22T21:57:02.626Z,20
2017-02-22T21:59:35.259Z,20
2017-02-22T22:02:07.911Z,20
2017-02-22T22:04:41.391Z,20
2017-02-22T22:07:14.438Z,20
2017-02-22T22:09:47.483Z,20
2017-02-22T22:12:20.144Z,20
2017-02-22T22:14:52.780Z,20
2017-02-22T22:17:25.817Z,20
2017-02-22T22:21:02.992Z,20
2017-02-22T22:23:35.957Z,20
2017-02-22T22:26:08.944Z,20
2017-02-22T22:28:41.895Z,20
2017-02-22T22:31:14.876Z,20
2017-02-22T22:33:47.408Z,20
2017-02-22T22:36:19.948Z,20
2017-02-22T22:38:52.510Z,20
2017-02-22T22:41:25.456Z,20
2017-02-22T22:43:57.996Z,20
2017-02-22T22:46:30.556Z,20
2017-02-22T22:49:03.531Z,20
2017-02-22T22:51:36.066Z,20
2017-02-22T22:54:08.624Z,20
2017-02-22T22:56:41.602Z,20
2017-02-22T22:59:14.174Z,20
2017-02-22T23:01:46.737Z,20
2017-02-22T23:04:19.277Z,20
2017-02-22T23:06:51.821Z,20
2017-02-22T23:09:24.358Z,20
2017-02-22T23:11:57.311Z,20
2017-02-22T23:14:29.851Z,20
2017-02-22T23:17:02.815Z,20
2017-02-22T23:19:35.341Z,20
2017-02-22T23:22:07.889Z,20
2017-02-22T23:24:40.841Z,20
2017-02-22T23:27:13.418Z,20
2017-02-22T23:29:45.955Z,20
2017-02-22T23:32:19.325Z,20
2017-02-22T23:34:51.855Z,20
2017-02-22T23:37:24.384Z,20
2017-02-22T23:39:57.360Z,20
2017-02-22T23:42:29.895Z,20
2017-02-22T23:45:02.876Z,20
2017-02-22T23:47:35.426Z,20
2017-02-22T23:50:07.993Z,20
2017-02-22T23:52:40.964Z,20
2017-02-22T23:55:13.496Z,20
2017-02-22T23:57:46.036Z,20
